Thunder radar more information blitzortung!


Radar de pluja more information rain snow radar


Visita la nostra xarxa de llocs de meteo:

Template documentation
and downloads

And another site



No particular awareness of the weather is required.    There are no Weather-warnings

Pagina Historial Weather Underground text

Diari Resum Marc 2, 2016 Unitats:  Mètric    Imperial   Tant
« Previous Dia
SegĂźent Dia »
Diari Setmana Mensual Anual Personalitzada
  Maxima: Minima: Media:
Temperatura: 20.4 °C 6.4 °C 15.3 °C
Punt de rosada: 7.9 °C -2.6 °C 2.3 °C
Humitat: 54 % 33 % 42 %
Wind Speed: 33.3 km/h 0.0 km/h 11.1 km/h
RĂ fegues de vent: 33.3 km/h - -
Vent:- - SW
Pression baro: 1020.9 hPa 1010.0 hPa -
Precipitacions: 0.0 mm    
Historical Graphs
 
 
Dades de taula per Marc 2, 2016
Temps Temperatura Punt de rosada Pression baro Vent Wind Speed RĂ fegues de vent Humitat Rainfall Rate (Hourly)
00:00 7.5 °C -2.0 °C 1019.9 hPa NE 4.8 km/h 6.4 km/h 51 % 0.0 mm
00:20 7.2 °C -2.3 °C 1018.8 hPa East 3.2 km/h 4.8 km/h 51 % 0.0 mm
00:30 7.0 °C -2.2 °C 1018.8 hPa Calm   3.2 km/h 52 % 0.0 mm
00:50 6.8 °C -2.4 °C 1019.9 hPa Calm   4.8 km/h 52 % 0.0 mm
01:00 6.7 °C -2.5 °C 1019.9 hPa NNE 3.2 km/h 4.8 km/h 52 % 0.0 mm
01:20 6.6 °C -2.6 °C 1018.8 hPa SE 1.6 km/h 4.8 km/h 52 % 0.0 mm
01:50 6.4 °C -2.2 °C 1018.8 hPa Calm   1.6 km/h 54 % 0.0 mm
02:00 6.8 °C -1.9 °C 1018.8 hPa SSW 1.6 km/h 4.8 km/h 54 % 0.0 mm
02:10 7.0 °C -1.7 °C 1019.9 hPa NE 1.6 km/h 6.4 km/h 54 % 0.0 mm
02:20 7.1 °C -1.6 °C 1019.9 hPa Calm   1.6 km/h 54 % 0.0 mm
02:30 7.3 °C -1.4 °C 1019.9 hPa NE 1.6 km/h 4.8 km/h 54 % 0.0 mm
02:40 7.6 °C -1.4 °C 1019.9 hPa NE 1.6 km/h 4.8 km/h 53 % 0.0 mm
02:50 7.5 °C -1.2 °C 1019.9 hPa Calm   3.2 km/h 54 % 0.0 mm
03:00 7.7 °C -1.1 °C 1019.9 hPa Calm   3.2 km/h 54 % 0.0 mm
03:10 8.0 °C -0.8 °C 1019.9 hPa NNE 1.6 km/h 3.2 km/h 54 % 0.0 mm
03:20 8.3 °C -0.5 °C 1020.9 hPa NE 1.6 km/h 3.2 km/h 54 % 0.0 mm
03:30 8.6 °C -0.4 °C 1020.9 hPa NNE 1.6 km/h 6.4 km/h 53 % 0.0 mm
03:40 8.9 °C -0.2 °C 1020.9 hPa NE 1.6 km/h 6.4 km/h 53 % 0.0 mm
03:50 9.2 °C 0.1 °C 1019.9 hPa NE 1.6 km/h 8.0 km/h 53 % 0.0 mm
04:00 9.6 °C 0.2 °C 1019.9 hPa NNE 3.2 km/h 6.4 km/h 52 % 0.0 mm
04:10 10.0 °C 0.6 °C 1019.9 hPa NNE 4.8 km/h 8.0 km/h 52 % 0.0 mm
04:20 10.2 °C 0.5 °C 1018.8 hPa NNE 3.2 km/h 12.9 km/h 51 % 0.0 mm
04:30 10.5 °C 0.8 °C 1018.8 hPa NNE 3.2 km/h 4.8 km/h 51 % 0.0 mm
04:40 11.1 °C 1.3 °C 1019.9 hPa NE 3.2 km/h 6.4 km/h 51 % 0.0 mm
04:50 11.4 °C 1.6 °C 1019.9 hPa NE 4.8 km/h 8.0 km/h 51 % 0.0 mm
05:00 11.9 °C 1.8 °C 1019.9 hPa NE 4.8 km/h 6.4 km/h 50 % 0.0 mm
05:20 12.6 °C 2.4 °C 1018.8 hPa NE 1.6 km/h 6.4 km/h 50 % 0.0 mm
05:30 13.0 °C 2.8 °C 1018.8 hPa NNE 4.8 km/h 6.4 km/h 50 % 0.0 mm
05:40 13.4 °C 2.9 °C 1018.8 hPa ENE 1.6 km/h 4.8 km/h 49 % 0.0 mm
05:50 14.3 °C 3.7 °C 1017.8 hPa East 4.8 km/h 8.0 km/h 49 % 0.0 mm
11:55 14.3 °C 3.7 °C 1017.8 hPa SW 1.9 km/h 3.2 km/h 49 % 0.0 mm
12:00 15.2 °C 4.6 °C 1017.8 hPa West 9.5 km/h 9.5 km/h 49 % 0.0 mm
12:05 15.6 °C 4.6 °C 1017.8 hPa WSW 10.0 km/h 10.0 km/h 48 % 0.0 mm
12:10 15.9 °C 4.6 °C 1017.8 hPa WSW 9.3 km/h 9.3 km/h 47 % 0.0 mm
12:15 16.3 °C 4.9 °C 1017.8 hPa ENE 5.6 km/h 5.6 km/h 47 % 0.0 mm
12:20 16.3 °C 4.7 °C 1017.8 hPa WSW 7.4 km/h 7.6 km/h 46 % 0.0 mm
12:25 16.5 °C 4.8 °C 1017.8 hPa NW 13.7 km/h 13.7 km/h 46 % 0.0 mm
12:30 16.8 °C 5.1 °C 1017.8 hPa West 7.4 km/h 7.4 km/h 46 % 0.0 mm
12:35 16.9 °C 5.2 °C 1017.8 hPa SSE 7.4 km/h 7.4 km/h 46 % 0.0 mm
12:40 17.1 °C 5.1 °C 1017.8 hPa WNW 6.1 km/h 6.1 km/h 45 % 0.0 mm
12:45 17.2 °C 5.2 °C 1016.8 hPa West 9.5 km/h 9.5 km/h 45 % 0.0 mm
12:50 17.2 °C 4.8 °C 1016.8 hPa WNW 11.1 km/h 11.1 km/h 44 % 0.0 mm
12:55 17.3 °C 4.9 °C 1016.8 hPa WNW 9.3 km/h 9.3 km/h 44 % 0.0 mm
13:00 17.4 °C 5.3 °C 1017.8 hPa NNE 9.3 km/h 9.3 km/h 45 % 0.0 mm
13:05 17.8 °C 5.7 °C 1017.8 hPa NW 5.6 km/h 5.6 km/h 45 % 0.0 mm
13:10 18.1 °C 5.9 °C 1017.8 hPa WSW 5.8 km/h 5.8 km/h 45 % 0.0 mm
13:15 18.1 °C 5.7 °C 1015.8 hPa SSW 5.6 km/h 5.6 km/h 44 % 0.0 mm
13:20 17.9 °C 5.4 °C 1015.8 hPa SW 13.0 km/h 13.0 km/h 44 % 0.0 mm
13:25 18.0 °C 5.2 °C 1015.8 hPa WSW 9.3 km/h 9.3 km/h 43 % 0.0 mm
13:30 18.0 °C 5.2 °C 1015.8 hPa West 14.0 km/h 14.0 km/h 43 % 0.0 mm
13:35 18.1 °C 5.3 °C 1015.8 hPa WNW 11.1 km/h 11.1 km/h 43 % 0.0 mm
13:40 18.6 °C 6.1 °C 1015.8 hPa WSW 6.4 km/h 6.4 km/h 44 % 0.0 mm
13:45 18.7 °C 6.2 °C 1015.8 hPa WSW 9.5 km/h 9.5 km/h 44 % 0.0 mm
13:50 18.7 °C 6.2 °C 1015.8 hPa WSW 4.2 km/h 4.2 km/h 44 % 0.0 mm
13:55 18.8 °C 6.3 °C 1015.8 hPa West 6.1 km/h 6.9 km/h 44 % 0.0 mm
14:00 19.3 °C 6.4 °C 1015.8 hPa WSW 5.3 km/h 5.3 km/h 43 % 0.0 mm
14:05 19.5 °C 6.6 °C 1015.8 hPa SW 8.7 km/h 8.7 km/h 43 % 0.0 mm
14:10 19.3 °C 6.4 °C 1015.8 hPa SW 11.1 km/h 11.1 km/h 43 % 0.0 mm
14:15 19.3 °C 6.4 °C 1015.8 hPa WSW 14.0 km/h 14.0 km/h 43 % 0.0 mm
14:20 19.2 °C 6.7 °C 1015.8 hPa West 7.9 km/h 7.9 km/h 44 % 0.0 mm
14:25 19.3 °C 6.7 °C 1015.8 hPa WSW 14.8 km/h 14.8 km/h 44 % 0.0 mm
14:30 19.5 °C 6.9 °C 1014.8 hPa East 11.1 km/h 11.1 km/h 44 % 0.0 mm
14:35 19.9 °C 7.3 °C 1014.8 hPa SSW 16.1 km/h 16.1 km/h 44 % 0.0 mm
14:40 20.0 °C 7.4 °C 1014.8 hPa WSW 9.3 km/h 9.3 km/h 44 % 0.0 mm
14:45 20.3 °C 7.9 °C 1013.8 hPa West 9.3 km/h 9.3 km/h 45 % 0.0 mm
14:50 20.2 °C 7.9 °C 1013.8 hPa WSW 9.3 km/h 9.3 km/h 45 % 0.0 mm
14:55 20.3 °C 7.9 °C 1013.8 hPa West 7.9 km/h 7.9 km/h 45 % 0.0 mm
15:00 20.3 °C 7.7 °C 1013.8 hPa West 18.5 km/h 18.5 km/h 44 % 0.0 mm
15:05 20.1 °C 7.4 °C 1013.8 hPa West 14.0 km/h 14.0 km/h 44 % 0.0 mm
15:10 20.3 °C 7.7 °C 1013.8 hPa WNW 12.6 km/h 12.6 km/h 44 % 0.0 mm
15:15 20.4 °C 7.7 °C 1013.8 hPa WNW 11.1 km/h 11.1 km/h 44 % 0.0 mm
15:20 20.2 °C 7.6 °C 1013.8 hPa WSW 20.4 km/h 20.4 km/h 44 % 0.0 mm
15:25 20.1 °C 7.4 °C 1013.8 hPa SSW 16.7 km/h 16.7 km/h 44 % 0.0 mm
15:30 20.1 °C 7.4 °C 1013.8 hPa West 20.1 km/h 20.1 km/h 44 % 0.0 mm
15:35 19.9 °C 7.3 °C 1013.8 hPa South 14.8 km/h 14.8 km/h 44 % 0.0 mm
15:40 19.6 °C 7.0 °C 1013.8 hPa WSW 13.0 km/h 13.0 km/h 44 % 0.0 mm
15:45 19.5 °C 6.9 °C 1013.8 hPa WSW 9.7 km/h 9.7 km/h 44 % 0.0 mm
15:50 19.4 °C 6.8 °C 1013.8 hPa WSW 20.4 km/h 20.4 km/h 44 % 0.0 mm
16:00 19.2 °C 6.7 °C 1012.8 hPa WSW 16.4 km/h 16.4 km/h 44 % 0.0 mm
16:05 19.1 °C 6.6 °C 1012.8 hPa WNW 11.1 km/h 11.1 km/h 44 % 0.0 mm
16:10 19.2 °C 6.7 °C 1012.8 hPa West 14.8 km/h 14.8 km/h 44 % 0.0 mm
16:15 19.3 °C 6.4 °C 1012.8 hPa WSW 13.0 km/h 13.0 km/h 43 % 0.0 mm
16:20 19.5 °C 6.6 °C 1012.8 hPa WSW 11.1 km/h 11.1 km/h 43 % 0.0 mm
16:25 19.6 °C 6.7 °C 1012.8 hPa WSW 11.1 km/h 11.9 km/h 43 % 0.0 mm
16:30 19.5 °C 6.6 °C 1011.7 hPa SW 18.5 km/h 18.5 km/h 43 % 0.0 mm
16:35 19.6 °C 6.7 °C 1011.7 hPa NNE 9.3 km/h 9.3 km/h 43 % 0.0 mm
16:40 19.6 °C 6.3 °C 1011.7 hPa South 14.8 km/h 14.8 km/h 42 % 0.0 mm
16:45 19.5 °C 6.2 °C 1011.7 hPa West 9.3 km/h 9.3 km/h 42 % 0.0 mm
16:50 19.5 °C 6.2 °C 1011.7 hPa West 13.0 km/h 13.0 km/h 42 % 0.0 mm
16:55 19.4 °C 6.2 °C 1011.7 hPa West 13.0 km/h 13.0 km/h 42 % 0.0 mm
17:00 19.1 °C 5.9 °C 1011.7 hPa WSW 31.5 km/h 31.5 km/h 42 % 0.0 mm
17:05 19.0 °C 5.8 °C 1011.7 hPa WSW 20.4 km/h 20.4 km/h 42 % 0.0 mm
17:10 19.0 °C 5.8 °C 1011.7 hPa NNE 5.6 km/h 5.6 km/h 42 % 0.0 mm
17:15 19.0 °C 5.8 °C 1011.7 hPa SW 15.8 km/h 15.8 km/h 42 % 0.0 mm
17:20 18.9 °C 5.7 °C 1011.7 hPa SW 7.4 km/h 10.0 km/h 42 % 0.0 mm
17:25 18.9 °C 5.3 °C 1011.7 hPa WNW 10.8 km/h 10.8 km/h 41 % 0.0 mm
17:30 18.7 °C 4.8 °C 1010.7 hPa WSW 20.4 km/h 20.4 km/h 40 % 0.0 mm
17:35 18.6 °C 4.7 °C 1010.7 hPa West 14.8 km/h 14.8 km/h 40 % 0.0 mm
17:40 18.5 °C 4.3 °C 1010.7 hPa WNW 13.0 km/h 16.1 km/h 39 % 0.0 mm
17:45 18.5 °C 4.3 °C 1010.7 hPa WSW 14.8 km/h 14.8 km/h 39 % 0.0 mm
17:50 18.4 °C 4.2 °C 1010.7 hPa WSW 9.7 km/h 9.7 km/h 39 % 0.0 mm
17:55 18.3 °C 3.7 °C 1010.7 hPa NW 11.1 km/h 11.1 km/h 38 % 0.0 mm
18:00 18.2 °C 3.3 °C 1010.7 hPa WNW 13.0 km/h 13.0 km/h 37 % 0.0 mm
18:10 17.8 °C 3.3 °C 1010.7 hPa WSW 16.4 km/h 16.4 km/h 38 % 0.0 mm
18:20 17.6 °C 1.9 °C 1010.7 hPa WSW 16.7 km/h 17.5 km/h 35 % 0.0 mm
18:25 17.5 °C 1.8 °C 1010.7 hPa WSW 11.1 km/h 17.5 km/h 35 % 0.0 mm
18:30 17.3 °C 1.3 °C 1010.7 hPa WSW 11.1 km/h 17.5 km/h 34 % 0.0 mm
18:35 17.1 °C 0.7 °C 1010.7 hPa WSW 11.1 km/h 17.5 km/h 33 % 0.0 mm
18:40 17.0 °C 0.6 °C 1010.7 hPa WSW 11.1 km/h 17.5 km/h 33 % 0.0 mm
18:45 16.9 °C 0.5 °C 1010.0 hPa WSW 11.1 km/h 17.5 km/h 33 % 0.0 mm
18:50 16.7 °C 0.7 °C 1010.0 hPa WSW 11.1 km/h 17.5 km/h 34 % 0.0 mm
18:55 16.6 °C 0.2 °C 1010.0 hPa WSW 11.1 km/h 17.5 km/h 33 % 0.0 mm
19:00 16.6 °C 0.2 °C 1010.7 hPa WSW 11.1 km/h 17.5 km/h 33 % 0.0 mm
19:05 16.5 °C 0.2 °C 1010.7 hPa WSW 11.1 km/h 17.5 km/h 33 % 0.0 mm
19:10 16.4 °C 0.1 °C 1010.7 hPa WSW 11.1 km/h 17.5 km/h 33 % 0.0 mm
19:15 16.2 °C -0.1 °C 1011.7 hPa NW 20.4 km/h 20.4 km/h 33 % 0.0 mm
19:20 16.1 °C -0.2 °C 1011.7 hPa WSW 10.0 km/h 12.2 km/h 33 % 0.0 mm
19:25 16.1 °C -0.2 °C 1011.7 hPa WSW 33.3 km/h 33.3 km/h 33 % 0.0 mm
19:30 15.9 °C 0.1 °C 1011.7 hPa WSW 33.3 km/h 33.3 km/h 34 % 0.0 mm
19:35 15.8 °C -0.1 °C 1011.7 hPa WSW 33.3 km/h 33.3 km/h 34 % 0.0 mm
19:40 15.7 °C -0.1 °C 1011.7 hPa WSW 33.3 km/h 33.3 km/h 34 % 0.0 mm
19:45 15.7 °C -0.1 °C 1012.8 hPa WSW 33.3 km/h 33.3 km/h 34 % 0.0 mm
19:50 15.7 °C -0.1 °C 1012.8 hPa WSW 33.3 km/h 33.3 km/h 34 % 0.0 mm
19:55 15.6 °C -0.6 °C 1012.8 hPa WSW 33.3 km/h 33.3 km/h 33 % 0.0 mm
20:00 15.6 °C -0.6 °C 1011.7 hPa WSW 33.3 km/h 33.3 km/h 33 % 0.0 mm
20:05 15.6 °C -0.6 °C 1011.7 hPa WSW 33.3 km/h 33.3 km/h 33 % 0.0 mm
20:10 15.6 °C -0.6 °C 1011.7 hPa WSW 33.3 km/h 33.3 km/h 33 % 0.0 mm
20:15 15.4 °C -0.8 °C 1011.7 hPa WSW 33.3 km/h 33.3 km/h 33 % 0.0 mm
20:20 15.4 °C -0.8 °C 1011.7 hPa WSW 33.3 km/h 33.3 km/h 33 % 0.0 mm
20:25 15.3 °C -0.9 °C 1011.7 hPa WSW 33.3 km/h 33.3 km/h 33 % 0.0 mm
20:30 15.3 °C -0.9 °C 1012.8 hPa West 5.8 km/h 9.7 km/h 33 % 0.0 mm
20:35 15.2 °C -1.0 °C 1012.8 hPa West 5.8 km/h 9.7 km/h 33 % 0.0 mm
20:40 15.0 °C -1.2 °C 1012.8 hPa West 5.6 km/h 5.6 km/h 33 % 0.0 mm
20:45 14.9 °C -1.3 °C 1012.8 hPa WSW 9.3 km/h 9.3 km/h 33 % 0.0 mm
20:50 14.8 °C -1.3 °C 1012.8 hPa WSW 9.3 km/h 9.3 km/h 33 % 0.0 mm
20:55 14.7 °C -1.4 °C 1012.8 hPa WSW 9.3 km/h 9.3 km/h 33 % 0.0 mm
21:00 14.5 °C -1.2 °C 1012.8 hPa WSW 9.3 km/h 9.3 km/h 34 % 0.0 mm
21:05 14.4 °C -1.3 °C 1012.8 hPa WSW 10.0 km/h 10.0 km/h 34 % 0.0 mm
21:10 14.3 °C -1.4 °C 1012.8 hPa WSW 10.0 km/h 10.0 km/h 34 % 0.0 mm
21:15 14.2 °C -1.4 °C 1012.8 hPa West 13.7 km/h 13.7 km/h 34 % 0.0 mm
21:20 14.1 °C -1.2 °C 1012.8 hPa West 13.7 km/h 13.7 km/h 35 % 0.0 mm
21:25 14.0 °C -1.2 °C 1012.8 hPa West 13.7 km/h 13.7 km/h 35 % 0.0 mm
21:30 13.8 °C -1.4 °C 1013.8 hPa West 13.7 km/h 13.7 km/h 35 % 0.0 mm
21:35 13.7 °C -1.1 °C 1013.8 hPa West 13.7 km/h 13.7 km/h 36 % 0.0 mm
21:40 13.6 °C -1.2 °C 1013.8 hPa West 13.7 km/h 13.7 km/h 36 % 0.0 mm
21:45 13.4 °C -1.3 °C 1012.8 hPa West 9.7 km/h 14.5 km/h 36 % 0.0 mm
21:50 13.4 °C -1.4 °C 1012.8 hPa West 9.7 km/h 14.5 km/h 36 % 0.0 mm
21:55 13.2 °C -1.2 °C 1012.8 hPa West 13.7 km/h 13.7 km/h 37 % 0.0 mm
22:00 13.1 °C -1.3 °C 1013.8 hPa West 9.7 km/h 14.5 km/h 37 % 0.0 mm
22:05 13.0 °C -1.0 °C 1013.8 hPa West 9.7 km/h 14.5 km/h 38 % 0.0 mm
22:10 12.9 °C -1.1 °C 1013.8 hPa West 13.0 km/h 13.0 km/h 38 % 0.0 mm
22:15 12.7 °C -1.3 °C 1013.8 hPa West 8.0 km/h 8.0 km/h 38 % 0.0 mm
22:20 12.7 °C -1.3 °C 1013.8 hPa West 8.0 km/h 8.0 km/h 38 % 0.0 mm
22:25 12.5 °C -1.4 °C 1013.8 hPa West 8.0 km/h 8.0 km/h 38 % 0.0 mm
22:30 12.4 °C -1.5 °C 1013.8 hPa West 8.0 km/h 8.0 km/h 38 % 0.0 mm
22:35 12.4 °C -1.2 °C 1013.8 hPa West 8.0 km/h 8.0 km/h 39 % 0.0 mm
22:40 12.3 °C -1.3 °C 1013.8 hPa West 8.0 km/h 8.0 km/h 39 % 0.0 mm
22:45 12.2 °C -1.4 °C 1014.8 hPa West 8.0 km/h 8.0 km/h 39 % 0.0 mm
22:50 12.1 °C -1.4 °C 1014.8 hPa West 8.0 km/h 8.0 km/h 39 % 0.0 mm
22:55 12.1 °C -1.2 °C 1014.8 hPa West 8.0 km/h 8.0 km/h 40 % 0.0 mm
23:00 12.0 °C -1.2 °C 1013.8 hPa West 8.0 km/h 8.0 km/h 40 % 0.0 mm
23:05 11.9 °C -1.3 °C 1013.8 hPa West 4.7 km/h 6.4 km/h 40 % 0.0 mm
23:10 11.8 °C -1.4 °C 1013.8 hPa West 4.7 km/h 6.4 km/h 40 % 0.0 mm
23:15 11.7 °C -1.4 °C 1014.8 hPa West 4.7 km/h 6.4 km/h 40 % 0.0 mm
23:20 11.6 °C -1.2 °C 1014.8 hPa West 4.7 km/h 6.4 km/h 41 % 0.0 mm
23:25 11.5 °C -1.3 °C 1014.8 hPa West 4.7 km/h 6.4 km/h 41 % 0.0 mm
23:30 11.4 °C -1.4 °C 1014.8 hPa West 4.7 km/h 6.4 km/h 41 % 0.0 mm
23:35 11.3 °C -1.5 °C 1014.8 hPa SW 3.7 km/h 3.7 km/h 41 % 0.0 mm
Meteo Sesrovires
Elogis d' Weather Underground - 3.5 mb

Guio original per  Jim McMurry - jmcmurry@mwt.net Adaptat per a la plantilla per  Wim van der Kuil - Leuven-Template.eu

Trobareu la nostra informacio del temps tambe a:

Weather Underground

AWEKAS